createdAt,value
2024-03-04T00:01:33.104Z,100657.44
2024-03-04T00:07:53.381Z,100664.44
2024-03-04T00:13:59.390Z,100664.47
2024-03-04T00:19:23.778Z,100675.75
2024-03-04T00:21:59.572Z,100681.84
2024-03-04T00:24:41.251Z,100679.22
2024-03-04T00:27:17.631Z,100677.47
2024-03-04T00:29:52.656Z,100682.69
2024-03-04T00:35:21.330Z,100687.88
2024-03-04T00:38:08.598Z,100691.38
2024-03-04T00:41:09.607Z,100692.22
2024-03-04T00:44:00.524Z,100688.75
2024-03-04T00:46:35.216Z,100687.88
2024-03-04T00:49:14.865Z,100687.00
2024-03-04T00:51:49.583Z,100691.34
2024-03-04T00:54:23.994Z,100692.22
2024-03-04T00:56:59.664Z,100690.47
2024-03-04T00:59:34.449Z,100686.97
2024-03-04T01:02:14.193Z,100695.66
2024-03-04T01:04:52.210Z,100693.94
2024-03-04T01:07:28.981Z,100698.31
2024-03-04T01:10:03.482Z,100704.41
2024-03-04T01:12:38.405Z,100691.41
2024-03-04T01:15:35.840Z,100709.66
2024-03-04T01:18:34.338Z,100707.94
2024-03-04T01:21:08.463Z,100712.28
2024-03-04T01:23:42.846Z,100706.16
2024-03-04T01:26:20.291Z,100714.91
2024-03-04T01:28:54.830Z,100713.16
2024-03-04T01:34:48.741Z,100704.44
2024-03-04T01:37:23.318Z,100706.19
2024-03-04T01:39:55.927Z,100712.28
2024-03-04T01:42:28.223Z,100714.91
2024-03-04T01:45:00.685Z,100722.75
2024-03-04T01:47:35.250Z,100722.72
2024-03-04T01:50:10.295Z,100718.38
2024-03-04T01:52:42.758Z,100717.50
2024-03-04T01:55:16.487Z,100708.84
2024-03-04T01:57:50.442Z,100717.56
2024-03-04T02:00:24.701Z,100717.59
2024-03-04T02:02:57.343Z,100710.66
2024-03-04T02:05:30.127Z,100713.25
2024-03-04T02:08:03.765Z,100708.06
2024-03-04T02:10:36.252Z,100708.06
2024-03-04T02:13:08.937Z,100701.97
2024-03-04T02:15:41.461Z,100701.13
2024-03-04T02:18:17.174Z,100697.66
2024-03-04T02:20:55.933Z,100708.09
2024-03-04T02:23:28.718Z,100704.63
2024-03-04T02:26:01.343Z,100706.38
2024-03-04T02:28:34.735Z,100709.00
2024-03-04T02:31:07.653Z,100720.31
2024-03-04T02:33:45.120Z,100722.06
2024-03-04T02:36:19.098Z,100722.06
2024-03-04T02:38:53.771Z,100733.38
2024-03-04T02:41:29.244Z,100727.28
2024-03-04T02:44:01.473Z,100732.50
2024-03-04T02:46:33.777Z,100726.44
2024-03-04T02:49:06.317Z,100726.44
2024-03-04T02:51:38.632Z,100723.81
2024-03-04T02:54:11.374Z,100732.50
2024-03-04T02:56:44.260Z,100744.69
2024-03-04T02:59:16.856Z,100742.94
2024-03-04T03:01:50.123Z,100736.00
2024-03-04T03:04:22.563Z,100750.78
2024-03-04T03:06:54.883Z,100744.69
2024-03-04T03:09:27.195Z,100739.44
2024-03-04T03:12:00.934Z,100742.03
2024-03-04T03:14:37.084Z,100752.47
2024-03-04T03:17:09.642Z,100759.41
2024-03-04T03:19:42.047Z,100754.19
2024-03-04T03:22:14.629Z,100762.88
2024-03-04T03:24:47.761Z,100759.41
2024-03-04T03:27:20.120Z,100764.59
2024-03-04T03:29:52.406Z,100762.00
2024-03-04T03:32:24.812Z,100762.00
2024-03-04T03:34:57.130Z,100771.56
2024-03-04T03:37:29.655Z,100768.94
2024-03-04T03:40:04.207Z,100778.50
2024-03-04T03:42:36.883Z,100776.75
2024-03-04T03:45:10.047Z,100785.44
2024-03-04T03:47:42.974Z,100795.00
2024-03-04T03:50:15.425Z,100794.13
2024-03-04T03:52:47.838Z,100791.53
2024-03-04T03:55:20.309Z,100800.22
2024-03-04T03:57:58.154Z,100801.06
2024-03-04T04:00:33.552Z,100802.81
2024-03-04T04:03:06.297Z,100807.16
2024-03-04T04:05:38.648Z,100825.41
2024-03-04T04:08:10.983Z,100821.91
2024-03-04T04:10:43.966Z,100834.09
2024-03-04T04:13:16.997Z,100829.72
2024-03-04T04:15:51.167Z,100832.31
2024-03-04T04:18:24.165Z,100852.28
2024-03-04T04:20:56.427Z,100853.16
2024-03-04T04:23:28.851Z,100853.19
2024-03-04T04:26:01.728Z,100857.53
2024-03-04T04:28:34.185Z,100855.78
2024-03-04T04:31:07.128Z,100849.72
2024-03-04T04:33:39.427Z,100854.09
2024-03-04T04:36:11.707Z,100857.56
2024-03-04T04:38:45.663Z,100868.00
2024-03-04T04:41:18.097Z,100868.84
2024-03-04T04:43:50.508Z,100862.81
2024-03-04T04:46:22.827Z,100869.75
2024-03-04T04:48:55.159Z,100865.41
2024-03-04T04:51:27.433Z,100875.84
2024-03-04T04:54:00.113Z,100875.84
2024-03-04T04:56:32.475Z,100879.31
2024-03-04T04:59:04.836Z,100884.56
2024-03-04T05:01:37.627Z,100889.81
2024-03-04T05:04:31.220Z,100891.53
2024-03-04T05:07:02.505Z,100888.06
2024-03-04T05:09:35.073Z,100890.69
2024-03-04T05:12:08.038Z,100895.91
2024-03-04T05:14:40.517Z,100892.44
2024-03-04T05:17:12.951Z,100897.66
2024-03-04T05:19:45.966Z,100900.25
2024-03-04T05:22:18.316Z,100896.78
2024-03-04T05:24:50.824Z,100902.00
2024-03-04T05:27:23.078Z,100895.94
2024-03-04T05:29:56.516Z,100896.78
2024-03-04T05:32:28.892Z,100907.22
2024-03-04T05:35:01.298Z,100913.31
2024-03-04T05:37:33.694Z,100904.63
2024-03-04T05:40:11.446Z,100907.25
2024-03-04T05:42:43.840Z,100908.97
2024-03-04T05:45:16.280Z,100908.97
2024-03-04T05:47:48.629Z,100908.13
2024-03-04T05:50:21.070Z,100919.41
2024-03-04T05:52:53.436Z,100918.56
2024-03-04T05:55:26.756Z,100929.00
2024-03-04T05:57:59.147Z,100929.03
2024-03-04T06:00:33.692Z,100929.91
2024-03-04T06:03:06.065Z,100935.13
2024-03-04T06:05:38.409Z,100943.81
2024-03-04T06:08:10.726Z,100941.19
2024-03-04T06:10:43.723Z,100942.94
2024-03-04T06:13:16.353Z,100948.16
2024-03-04T06:15:48.717Z,100953.38
2024-03-04T06:18:21.443Z,100956.84
2024-03-04T06:23:42.527Z,100954.25
2024-03-04T06:26:20.181Z,100962.09
2024-03-04T06:28:55.323Z,100957.72
2024-03-04T06:31:35.346Z,100951.63
2024-03-04T06:34:23.830Z,100959.47
2024-03-04T06:37:00.206Z,100956.84
2024-03-04T06:39:59.618Z,100958.63
2024-03-04T06:43:23.966Z,100956.88
2024-03-04T06:46:01.600Z,100955.13
2024-03-04T06:48:39.918Z,100965.56
2024-03-04T06:51:26.040Z,100969.91
2024-03-04T06:56:42.270Z,100972.53
2024-03-04T06:59:19.782Z,100972.53
2024-03-04T07:02:00.488Z,100981.25
2024-03-04T07:08:04.644Z,100968.13
2024-03-04T07:10:39.363Z,100966.38
2024-03-04T07:13:16.030Z,100973.31
2024-03-04T07:27:13.615Z,100989.81
2024-03-04T07:30:09.749Z,100992.41
2024-03-04T07:32:58.336Z,100992.38
2024-03-04T07:39:36.270Z,100995.75
2024-03-04T07:42:45.386Z,100999.22
2024-03-04T07:46:01.477Z,100993.97
2024-03-04T07:48:39.947Z,100994.78
2024-03-04T07:51:15.860Z,100994.75
2024-03-04T07:53:51.000Z,100992.09
2024-03-04T07:56:25.926Z,100993.84
2024-03-04T07:59:05.724Z,101007.81
2024-03-04T08:05:12.544Z,101007.78
2024-03-04T08:07:48.013Z,101013.91
2024-03-04T08:10:31.728Z,101013.91
2024-03-04T08:16:08.305Z,101018.16
2024-03-04T08:18:52.973Z,101022.44
2024-03-04T08:21:31.300Z,101024.13
2024-03-04T08:24:06.450Z,101019.63
2024-03-04T08:29:47.786Z,101023.88
2024-03-04T08:36:26.039Z,101028.03
2024-03-04T08:42:29.194Z,101034.88
2024-03-04T08:45:28.935Z,101040.88
2024-03-04T09:10:34.022Z,101060.44
2024-03-04T09:22:50.361Z,101052.63
2024-03-04T09:37:03.850Z,101068.34
2024-03-04T09:44:40.171Z,101064.91
2024-03-04T09:50:15.005Z,101077.94
2024-03-04T09:53:11.627Z,101078.84
2024-03-04T09:58:09.573Z,101076.56
2024-03-04T10:01:36.823Z,101084.97
2024-03-04T10:08:31.916Z,101089.38
2024-03-04T10:15:24.345Z,101086.84
2024-03-04T10:18:13.673Z,101082.63
2024-03-04T10:20:46.272Z,101084.06
2024-03-04T10:23:19.586Z,101080.22
2024-03-04T10:26:11.467Z,101073.06
2024-03-04T10:28:56.968Z,101072.09
2024-03-04T10:34:26.286Z,101062.91
2024-03-04T10:41:48.218Z,101060.16
2024-03-04T10:44:30.218Z,101059.16
2024-03-04T11:31:32.860Z,101091.28
2024-03-04T11:42:08.564Z,101086.66
2024-03-04T11:45:38.510Z,101082.41
2024-03-04T11:59:13.779Z,101096.75
2024-03-04T12:04:40.228Z,101102.94
2024-03-04T12:07:24.587Z,101113.94
2024-03-04T12:12:54.911Z,101107.03
2024-03-04T12:18:12.429Z,101107.25
2024-03-04T12:20:53.339Z,101106.59
2024-03-04T12:23:42.792Z,101117.53
2024-03-04T12:26:19.654Z,101121.44
2024-03-04T12:29:09.962Z,101119.44
2024-03-04T12:31:48.817Z,101120.41
2024-03-04T12:40:59.837Z,101117.66
2024-03-04T12:43:36.135Z,101122.91
2024-03-04T12:49:38.026Z,101131.56
2024-03-04T12:52:12.038Z,101128.00
2024-03-04T12:54:45.494Z,101133.34
2024-03-04T12:57:17.846Z,101128.13
2024-03-04T12:59:51.935Z,101138.63
2024-03-04T13:05:13.101Z,101138.00
2024-03-04T13:10:27.398Z,101139.75
2024-03-04T13:15:45.677Z,101139.75
2024-03-04T13:20:51.313Z,101139.91
2024-03-04T13:23:23.818Z,101140.69
2024-03-04T13:25:56.822Z,101145.91
2024-03-04T13:28:29.558Z,101145.97
2024-03-04T13:31:02.288Z,101145.03
2024-03-04T13:33:34.856Z,101143.50
2024-03-04T13:36:08.265Z,101149.72
2024-03-04T13:38:41.094Z,101148.00
2024-03-04T13:41:13.781Z,101143.72
2024-03-04T13:43:46.447Z,101142.94
2024-03-04T13:46:19.201Z,101142.84
2024-03-04T13:48:51.883Z,101145.53
2024-03-04T13:51:24.631Z,101143.81
2024-03-04T13:53:57.299Z,101144.75
2024-03-04T13:56:30.071Z,101142.09
2024-03-04T13:59:07.582Z,101142.09
2024-03-04T14:01:40.560Z,101127.00
2024-03-04T14:04:13.536Z,101136.19
2024-03-04T14:06:46.397Z,101147.53
2024-03-04T14:09:20.803Z,101144.78
2024-03-04T14:11:53.634Z,101138.78
2024-03-04T14:14:26.584Z,101141.22
2024-03-04T14:16:59.908Z,101136.69
2024-03-04T14:19:34.109Z,101135.78
2024-03-04T14:22:10.336Z,101144.59
2024-03-04T14:27:24.012Z,101132.09
2024-03-04T14:30:00.513Z,101130.28
2024-03-04T14:32:33.690Z,101138.03
2024-03-04T14:35:06.891Z,101134.63
2024-03-04T14:37:39.996Z,101140.94
2024-03-04T14:40:17.679Z,101131.22
2024-03-04T14:42:50.432Z,101137.25
2024-03-04T14:45:24.879Z,101139.06
2024-03-04T14:47:58.353Z,101135.50
2024-03-04T14:50:31.269Z,101136.59
2024-03-04T14:53:04.191Z,101133.91
2024-03-04T14:55:36.828Z,101130.50
2024-03-04T14:58:09.461Z,101120.22
2024-03-04T15:00:42.196Z,101130.78
2024-03-04T15:03:14.999Z,101138.59
2024-03-04T15:05:47.861Z,101136.00
2024-03-04T15:08:20.466Z,101139.59
2024-03-04T15:10:53.401Z,101146.66
2024-03-04T15:13:26.181Z,101143.16
2024-03-04T15:15:59.036Z,101150.28
2024-03-04T15:18:35.478Z,101144.25
2024-03-04T15:21:08.600Z,101153.06
2024-03-04T15:23:41.454Z,101152.31
2024-03-04T15:26:14.066Z,101156.91
2024-03-04T15:28:48.758Z,101155.16
2024-03-04T15:31:21.498Z,101156.03
2024-03-04T15:33:54.086Z,101156.03
2024-03-04T15:36:32.696Z,101151.63
2024-03-04T15:39:12.459Z,101154.44
2024-03-04T15:41:46.254Z,101157.06
2024-03-04T15:44:19.055Z,101158.00
2024-03-04T15:46:54.054Z,101157.19
2024-03-04T15:49:41.708Z,101162.41
2024-03-04T15:52:14.256Z,101158.16
2024-03-04T15:54:46.829Z,101159.13
2024-03-04T15:57:19.374Z,101160.03
2024-03-04T15:59:52.269Z,101168.66
2024-03-04T16:02:24.878Z,101159.06
2024-03-04T16:04:57.563Z,101164.31
2024-03-04T16:07:30.594Z,101171.47
2024-03-04T16:10:04.452Z,101163.59
2024-03-04T16:12:39.040Z,101172.56
2024-03-04T16:15:11.552Z,101168.28
2024-03-04T16:17:43.868Z,101168.31
2024-03-04T16:20:20.474Z,101168.28
2024-03-04T16:22:53.449Z,101177.13
2024-03-04T16:25:27.904Z,101177.19
2024-03-04T16:28:05.351Z,101183.31
2024-03-04T16:30:40.109Z,101175.41
2024-03-04T16:33:12.621Z,101185.06
2024-03-04T16:35:45.018Z,101192.97
2024-03-04T16:38:19.633Z,101189.47
2024-03-04T16:40:54.523Z,101196.56
2024-03-04T16:43:26.902Z,101187.78
2024-03-04T16:46:04.745Z,101194.69
2024-03-04T16:48:37.024Z,101191.28
2024-03-04T16:51:17.060Z,101200.13
2024-03-04T16:53:49.560Z,101192.28
2024-03-04T16:56:23.813Z,101204.53
2024-03-04T16:58:56.413Z,101209.03
2024-03-04T17:01:35.673Z,101206.63
2024-03-04T17:04:13.248Z,101213.66
2024-03-04T17:06:46.347Z,101212.69
2024-03-04T17:09:19.555Z,101213.66
2024-03-04T17:11:52.187Z,101217.91
2024-03-04T17:14:26.812Z,101217.00
2024-03-04T17:17:09.370Z,101219.56
2024-03-04T17:19:42.751Z,101223.03
2024-03-04T17:22:15.906Z,101223.84
2024-03-04T17:24:48.923Z,101229.16
2024-03-04T17:27:21.289Z,101233.53
2024-03-04T17:29:53.553Z,101228.31
2024-03-04T17:32:26.317Z,101225.72
2024-03-04T17:34:58.897Z,101228.38
2024-03-04T17:40:17.108Z,101238.03
2024-03-04T17:42:56.792Z,101227.47
2024-03-04T17:45:29.924Z,101230.97
2024-03-04T17:48:02.559Z,101241.47
2024-03-04T17:50:35.284Z,101229.22
2024-03-04T17:53:07.591Z,101232.72
2024-03-04T17:55:42.031Z,101232.75
2024-03-04T17:58:17.453Z,101220.50
2024-03-04T18:00:50.760Z,101220.63
2024-03-04T18:03:23.222Z,101233.88
2024-03-04T18:05:57.281Z,101247.94
2024-03-04T18:08:30.796Z,101241.81
2024-03-04T18:11:04.015Z,101245.28
2024-03-04T18:13:37.185Z,101252.28
2024-03-04T18:16:15.542Z,101246.13
2024-03-04T18:18:53.058Z,101254.88
2024-03-04T18:21:26.184Z,101260.94
2024-03-04T18:23:58.468Z,101265.28
2024-03-04T18:26:31.020Z,101266.13
2024-03-04T18:29:03.785Z,101271.31
2024-03-04T18:31:41.188Z,101268.69
2024-03-04T18:34:22.069Z,101267.78
2024-03-04T18:37:06.330Z,101268.66
2024-03-04T18:40:06.477Z,101263.44
2024-03-04T18:42:40.327Z,101259.97
2024-03-04T18:45:13.615Z,101256.53
2024-03-04T18:47:46.707Z,101260.16
2024-03-04T18:50:25.053Z,101255.03
2024-03-04T18:53:00.070Z,101261.16
2024-03-04T18:55:34.456Z,101259.47
2024-03-04T18:58:11.315Z,101260.41
2024-03-04T19:00:44.297Z,101262.22
2024-03-04T19:03:17.113Z,101271.88
2024-03-04T19:05:50.308Z,101278.03
2024-03-04T19:08:22.813Z,101281.56
2024-03-04T19:11:04.878Z,101280.69
2024-03-04T19:13:41.140Z,101284.22
2024-03-04T19:16:13.449Z,101281.63
2024-03-04T19:18:46.639Z,101290.38
2024-03-04T19:21:19.603Z,101293.88
2024-03-04T19:23:51.980Z,101292.09
2024-03-04T19:26:24.257Z,101293.88
2024-03-04T19:28:56.715Z,101298.25
2024-03-04T19:31:29.614Z,101294.75
2024-03-04T19:34:04.945Z,101303.44
2024-03-04T19:36:43.382Z,101301.66
2024-03-04T19:39:16.085Z,101303.41
2024-03-04T19:41:49.315Z,101302.50
2024-03-04T19:44:21.552Z,101308.59
2024-03-04T19:46:53.854Z,101312.94
2024-03-04T19:49:26.255Z,101305.91
2024-03-04T19:51:58.691Z,101312.88
2024-03-04T19:54:31.028Z,101307.63
2024-03-04T19:57:04.073Z,101311.09
2024-03-04T19:59:36.365Z,101310.19
2024-03-04T20:02:08.656Z,101310.19
2024-03-04T20:04:43.520Z,101310.19
2024-03-04T20:07:18.637Z,101316.31
2024-03-04T20:09:53.562Z,101312.81
2024-03-04T20:12:27.285Z,101318.06
2024-03-04T20:15:00.242Z,101315.47
2024-03-04T20:17:32.763Z,101317.19
2024-03-04T20:20:05.950Z,101312.84
2024-03-04T20:22:38.157Z,101311.94
2024-03-04T20:25:11.160Z,101316.31
2024-03-04T20:27:43.464Z,101305.84
2024-03-04T20:30:15.714Z,101304.09
2024-03-04T20:32:47.898Z,101308.44
2024-03-04T20:35:21.256Z,101311.06
2024-03-04T20:37:53.734Z,101311.94
2024-03-04T20:40:26.239Z,101308.41
2024-03-04T20:42:59.055Z,101306.66
2024-03-04T20:45:32.124Z,101309.25
2024-03-04T20:48:06.228Z,101310.97
2024-03-04T20:50:39.834Z,101316.25
2024-03-04T20:53:12.116Z,101315.38
2024-03-04T20:55:45.478Z,101316.25
2024-03-04T21:06:31.856Z,101324.13
2024-03-04T21:09:04.516Z,101318.88
2024-03-04T21:11:37.029Z,101327.59
2024-03-04T21:14:09.422Z,101327.59
2024-03-04T21:16:43.337Z,101326.72
2024-03-04T21:19:15.732Z,101331.09
2024-03-04T21:21:48.006Z,101336.34
2024-03-04T21:24:20.273Z,101338.09
2024-03-04T21:26:53.733Z,101339.84
2024-03-04T21:29:25.967Z,101338.97
2024-03-04T21:32:00.297Z,101341.59
2024-03-04T21:34:32.929Z,101334.63
2024-03-04T21:37:09.646Z,101343.41
2024-03-04T21:41:27.971Z,101340.78
2024-03-04T21:44:00.374Z,101341.72
2024-03-04T21:46:32.665Z,101342.59
2024-03-04T21:49:06.165Z,101345.19
2024-03-04T21:51:42.760Z,101335.59
2024-03-04T21:54:15.571Z,101340.88
2024-03-04T21:56:48.056Z,101341.78
2024-03-04T21:59:20.431Z,101341.78
2024-03-04T22:01:53.051Z,101345.31
2024-03-04T22:04:25.656Z,101346.16
2024-03-04T22:06:58.111Z,101339.22
2024-03-04T22:09:31.211Z,101345.34
2024-03-04T22:12:04.000Z,101345.38
2024-03-04T22:14:36.468Z,101349.72
2024-03-04T22:17:11.739Z,101347.97
2024-03-04T22:19:44.123Z,101350.59
2024-03-04T22:22:16.619Z,101342.72
2024-03-04T22:24:48.935Z,101349.75
2024-03-04T22:27:21.794Z,101344.53
2024-03-04T22:29:54.546Z,101348.03
2024-03-04T22:32:28.983Z,101346.28
2024-03-04T22:35:02.195Z,101352.41
2024-03-04T22:37:35.103Z,101353.25
2024-03-04T22:40:12.991Z,101346.28
2024-03-04T22:42:45.414Z,101349.75
2024-03-04T22:45:17.849Z,101349.75
2024-03-04T22:47:51.146Z,101354.13
2024-03-04T22:50:23.741Z,101355.00
2024-03-04T22:52:56.286Z,101353.28
2024-03-04T22:55:28.690Z,101351.53
2024-03-04T22:58:01.143Z,101352.41
2024-03-04T23:00:39.901Z,101351.56
2024-03-04T23:03:12.419Z,101359.44
2024-03-04T23:05:45.575Z,101362.03
2024-03-04T23:08:17.903Z,101354.19
2024-03-04T23:13:45.511Z,101363.81
2024-03-04T23:16:17.919Z,101364.69
2024-03-04T23:18:50.302Z,101369.03
2024-03-04T23:24:03.138Z,101376.94
2024-03-04T23:26:35.860Z,101377.81
2024-03-04T23:29:08.213Z,101373.44
2024-03-04T23:31:40.508Z,101375.19
2024-03-04T23:34:13.138Z,101376.94
2024-03-04T23:36:51.374Z,101383.91
2024-03-04T23:42:10.622Z,101388.28
2024-03-04T23:44:43.163Z,101386.53
2024-03-04T23:47:15.517Z,101383.91
2024-03-04T23:49:47.958Z,101384.75
2024-03-04T23:52:21.736Z,101389.97
2024-03-04T23:54:57.245Z,101384.75
2024-03-04T23:57:30.330Z,101396.06
